Granjeno, Texas
Current Conditions -  °F | °C
As of 2:53 PM on Thursday 23 Oct 2014 (Local Time) from KMFE Reporting Station
Scattered Clouds Scattered Clouds  
Wind Chill: 84°   Ceiling: Unl
Heat Index: 85°   Visibility: 10mi
Dew Point: 64°   Wind: 7mph
Humidity: 51%   Direction: 20°NNE
Pressure: 30.04"   Gusts: NA
Location:  26.2167°N, 98.325°W
Report Text: KMFE 231953Z 02006KT 10SM SCT045 29/18 A3004 RMK AO2 SLP169 T02890178
Loading
Personal Weather Stations






























Interactive Weather Map
Tropical Storm Tracking
New forecast layout! Learn more

10-Day Weather Forecast

Advertisements
Track Severe Weather on mobile